sensor_id;sensor_type;location;lat;lon;timestamp;P1;durP1;ratioP1;P2;durP2;ratioP2
20456;SDS011;10387;51.102;6.848;2023-11-21T00:01:18;11.13;;;9.77;;
20456;SDS011;10387;51.102;6.848;2023-11-21T00:03:45;15.93;;;10.53;;
20456;SDS011;10387;51.102;6.848;2023-11-21T00:06:11;10.87;;;9.70;;
20456;SDS011;10387;51.102;6.848;2023-11-21T00:08:37;11.53;;;10.03;;
20456;SDS011;10387;51.102;6.848;2023-11-21T00:11:03;11.10;;;9.87;;
20456;SDS011;10387;51.102;6.848;2023-11-21T00:13:31;12.87;;;10.00;;
20456;SDS011;10387;51.102;6.848;2023-11-21T00:15:58;15.83;;;9.30;;
20456;SDS011;10387;51.102;6.848;2023-11-21T00:18:24;10.90;;;8.67;;
20456;SDS011;10387;51.102;6.848;2023-11-21T00:20:50;13.23;;;9.93;;
20456;SDS011;10387;51.102;6.848;2023-11-21T00:23:17;10.43;;;9.40;;
20456;SDS011;10387;51.102;6.848;2023-11-21T00:25:43;11.80;;;9.33;;
20456;SDS011;10387;51.102;6.848;2023-11-21T00:28:10;16.03;;;11.73;;
20456;SDS011;10387;51.102;6.848;2023-11-21T00:30:36;18.37;;;13.53;;
20456;SDS011;10387;51.102;6.848;2023-11-21T00:33:03;14.93;;;11.90;;
20456;SDS011;10387;51.102;6.848;2023-11-21T00:35:29;18.63;;;11.63;;
20456;SDS011;10387;51.102;6.848;2023-11-21T00:37:55;18.57;;;12.10;;
20456;SDS011;10387;51.102;6.848;2023-11-21T00:40:22;14.77;;;11.47;;
20456;SDS011;10387;51.102;6.848;2023-11-21T00:42:50;17.23;;;11.30;;
20456;SDS011;10387;51.102;6.848;2023-11-21T00:45:16;16.50;;;12.23;;
20456;SDS011;10387;51.102;6.848;2023-11-21T00:47:42;15.60;;;10.70;;
20456;SDS011;10387;51.102;6.848;2023-11-21T00:50:08;14.13;;;10.80;;
20456;SDS011;10387;51.102;6.848;2023-11-21T00:52:34;12.83;;;11.03;;
20456;SDS011;10387;51.102;6.848;2023-11-21T00:55:01;14.73;;;11.10;;
20456;SDS011;10387;51.102;6.848;2023-11-21T00:57:28;15.27;;;11.80;;
20456;SDS011;10387;51.102;6.848;2023-11-21T00:59:54;16.30;;;12.90;;
20456;SDS011;10387;51.102;6.848;2023-11-21T01:02:20;15.63;;;13.40;;
20456;SDS011;10387;51.102;6.848;2023-11-21T01:04:47;21.07;;;14.60;;
20456;SDS011;10387;51.102;6.848;2023-11-21T01:07:14;19.57;;;13.63;;
20456;SDS011;10387;51.102;6.848;2023-11-21T01:09:40;17.67;;;12.90;;
20456;SDS011;10387;51.102;6.848;2023-11-21T01:12:06;14.57;;;11.77;;
20456;SDS011;10387;51.102;6.848;2023-11-21T01:14:33;18.73;;;12.27;;
20456;SDS011;10387;51.102;6.848;2023-11-21T01:16:59;18.10;;;14.03;;
20456;SDS011;10387;51.102;6.848;2023-11-21T01:19:26;19.87;;;13.83;;
20456;SDS011;10387;51.102;6.848;2023-11-21T01:21:54;23.47;;;14.13;;
20456;SDS011;10387;51.102;6.848;2023-11-21T01:24:20;22.83;;;14.40;;
20456;SDS011;10387;51.102;6.848;2023-11-21T01:26:46;18.77;;;14.13;;
20456;SDS011;10387;51.102;6.848;2023-11-21T01:29:12;19.97;;;14.57;;
20456;SDS011;10387;51.102;6.848;2023-11-21T01:31:38;19.10;;;13.50;;
20456;SDS011;10387;51.102;6.848;2023-11-21T01:34:05;17.50;;;13.23;;
20456;SDS011;10387;51.102;6.848;2023-11-21T01:36:32;16.83;;;12.40;;
20456;SDS011;10387;51.102;6.848;2023-11-21T01:38:59;19.60;;;13.13;;
20456;SDS011;10387;51.102;6.848;2023-11-21T01:41:26;18.60;;;12.20;;
20456;SDS011;10387;51.102;6.848;2023-11-21T01:43:52;15.43;;;12.37;;
20456;SDS011;10387;51.102;6.848;2023-11-21T01:46:19;21.10;;;13.00;;
20456;SDS011;10387;51.102;6.848;2023-11-21T01:48:45;19.93;;;13.63;;
20456;SDS011;10387;51.102;6.848;2023-11-21T01:51:15;19.80;;;13.93;;
20456;SDS011;10387;51.102;6.848;2023-11-21T01:53:42;20.37;;;13.43;;
20456;SDS011;10387;51.102;6.848;2023-11-21T01:56:10;18.97;;;14.20;;
20456;SDS011;10387;51.102;6.848;2023-11-21T01:58:36;24.73;;;15.23;;
20456;SDS011;10387;51.102;6.848;2023-11-21T02:01:02;24.33;;;15.43;;
20456;SDS011;10387;51.102;6.848;2023-11-21T02:03:30;23.90;;;15.90;;
20456;SDS011;10387;51.102;6.848;2023-11-21T02:05:56;23.40;;;16.83;;
20456;SDS011;10387;51.102;6.848;2023-11-21T02:08:22;31.97;;;18.00;;
20456;SDS011;10387;51.102;6.848;2023-11-21T02:10:48;29.63;;;16.23;;
20456;SDS011;10387;51.102;6.848;2023-11-21T02:13:14;26.70;;;17.40;;
20456;SDS011;10387;51.102;6.848;2023-11-21T02:15:41;26.53;;;17.23;;
20456;SDS011;10387;51.102;6.848;2023-11-21T02:18:08;23.50;;;15.30;;
20456;SDS011;10387;51.102;6.848;2023-11-21T02:20:36;23.70;;;16.53;;
20456;SDS011;10387;51.102;6.848;2023-11-21T02:23:04;25.97;;;18.03;;
20456;SDS011;10387;51.102;6.848;2023-11-21T02:25:31;27.90;;;17.67;;
20456;SDS011;10387;51.102;6.848;2023-11-21T02:27:58;28.83;;;16.97;;
20456;SDS011;10387;51.102;6.848;2023-11-21T02:30:25;26.50;;;16.90;;
20456;SDS011;10387;51.102;6.848;2023-11-21T02:32:52;29.33;;;17.80;;
20456;SDS011;10387;51.102;6.848;2023-11-21T02:35:19;26.20;;;16.83;;
20456;SDS011;10387;51.102;6.848;2023-11-21T02:37:46;27.73;;;17.27;;
20456;SDS011;10387;51.102;6.848;2023-11-21T02:40:13;27.60;;;17.93;;
20456;SDS011;10387;51.102;6.848;2023-11-21T02:42:46;30.63;;;17.57;;
20456;SDS011;10387;51.102;6.848;2023-11-21T02:45:13;27.77;;;18.37;;
20456;SDS011;10387;51.102;6.848;2023-11-21T02:47:42;33.17;;;19.10;;
20456;SDS011;10387;51.102;6.848;2023-11-21T02:50:09;35.27;;;20.40;;
20456;SDS011;10387;51.102;6.848;2023-11-21T02:52:45;29.10;;;18.97;;
20456;SDS011;10387;51.102;6.848;2023-11-21T02:55:14;35.67;;;20.07;;
20456;SDS011;10387;51.102;6.848;2023-11-21T02:57:40;34.17;;;19.60;;
20456;SDS011;10387;51.102;6.848;2023-11-21T03:00:07;35.97;;;20.87;;
20456;SDS011;10387;51.102;6.848;2023-11-21T03:02:36;37.90;;;22.20;;
20456;SDS011;10387;51.102;6.848;2023-11-21T03:05:04;32.87;;;22.17;;
20456;SDS011;10387;51.102;6.848;2023-11-21T03:07:30;37.13;;;22.10;;
20456;SDS011;10387;51.102;6.848;2023-11-21T03:09:57;37.03;;;22.93;;
20456;SDS011;10387;51.102;6.848;2023-11-21T03:12:23;39.67;;;24.30;;
20456;SDS011;10387;51.102;6.848;2023-11-21T03:14:49;39.00;;;23.30;;
20456;SDS011;10387;51.102;6.848;2023-11-21T03:17:15;36.87;;;23.23;;
20456;SDS011;10387;51.102;6.848;2023-11-21T03:19:41;39.13;;;23.47;;
20456;SDS011;10387;51.102;6.848;2023-11-21T03:22:08;41.27;;;23.07;;
20456;SDS011;10387;51.102;6.848;2023-11-21T03:24:35;37.60;;;23.07;;
20456;SDS011;10387;51.102;6.848;2023-11-21T03:27:02;38.03;;;24.07;;
20456;SDS011;10387;51.102;6.848;2023-11-21T03:29:29;41.13;;;23.70;;
20456;SDS011;10387;51.102;6.848;2023-11-21T03:31:57;40.87;;;24.47;;
20456;SDS011;10387;51.102;6.848;2023-11-21T03:34:34;43.53;;;25.77;;
20456;SDS011;10387;51.102;6.848;2023-11-21T03:37:00;39.50;;;23.70;;
20456;SDS011;10387;51.102;6.848;2023-11-21T03:39:27;39.03;;;25.00;;
20456;SDS011;10387;51.102;6.848;2023-11-21T03:41:54;40.80;;;24.90;;
20456;SDS011;10387;51.102;6.848;2023-11-21T03:44:21;41.10;;;24.77;;
20456;SDS011;10387;51.102;6.848;2023-11-21T03:46:48;38.70;;;23.77;;
20456;SDS011;10387;51.102;6.848;2023-11-21T03:49:14;38.17;;;24.13;;
20456;SDS011;10387;51.102;6.848;2023-11-21T03:51:40;38.37;;;24.50;;
20456;SDS011;10387;51.102;6.848;2023-11-21T03:54:07;40.27;;;24.07;;
20456;SDS011;10387;51.102;6.848;2023-11-21T03:56:33;40.53;;;24.80;;
20456;SDS011;10387;51.102;6.848;2023-11-21T03:58:59;45.27;;;25.83;;
20456;SDS011;10387;51.102;6.848;2023-11-21T04:01:25;40.73;;;25.37;;
20456;SDS011;10387;51.102;6.848;2023-11-21T04:03:51;45.70;;;26.67;;
20456;SDS011;10387;51.102;6.848;2023-11-21T04:06:18;37.40;;;24.43;;
20456;SDS011;10387;51.102;6.848;2023-11-21T04:08:45;35.80;;;24.40;;
20456;SDS011;10387;51.102;6.848;2023-11-21T04:11:11;38.53;;;23.43;;
20456;SDS011;10387;51.102;6.848;2023-11-21T04:13:40;43.37;;;26.43;;
20456;SDS011;10387;51.102;6.848;2023-11-21T04:16:08;40.87;;;25.80;;
20456;SDS011;10387;51.102;6.848;2023-11-21T04:18:37;46.53;;;26.97;;
20456;SDS011;10387;51.102;6.848;2023-11-21T04:21:04;36.73;;;24.33;;
20456;SDS011;10387;51.102;6.848;2023-11-21T04:23:31;42.77;;;25.90;;
20456;SDS011;10387;51.102;6.848;2023-11-21T04:25:57;33.63;;;22.80;;
20456;SDS011;10387;51.102;6.848;2023-11-21T04:28:24;30.87;;;20.97;;
20456;SDS011;10387;51.102;6.848;2023-11-21T04:30:50;29.73;;;21.37;;
20456;SDS011;10387;51.102;6.848;2023-11-21T04:33:17;30.97;;;21.77;;
20456;SDS011;10387;51.102;6.848;2023-11-21T04:35:43;32.43;;;22.00;;
20456;SDS011;10387;51.102;6.848;2023-11-21T04:38:09;31.60;;;20.83;;
20456;SDS011;10387;51.102;6.848;2023-11-21T04:40:49;30.90;;;21.70;;
20456;SDS011;10387;51.102;6.848;2023-11-21T04:43:16;33.43;;;21.40;;
20456;SDS011;10387;51.102;6.848;2023-11-21T04:45:43;33.40;;;23.57;;
20456;SDS011;10387;51.102;6.848;2023-11-21T04:48:09;34.53;;;23.33;;
20456;SDS011;10387;51.102;6.848;2023-11-21T04:50:35;37.00;;;24.03;;
20456;SDS011;10387;51.102;6.848;2023-11-21T04:53:01;35.37;;;23.10;;
20456;SDS011;10387;51.102;6.848;2023-11-21T04:55:27;38.80;;;24.37;;
20456;SDS011;10387;51.102;6.848;2023-11-21T04:57:54;34.47;;;21.43;;
20456;SDS011;10387;51.102;6.848;2023-11-21T05:00:20;33.20;;;22.47;;
20456;SDS011;10387;51.102;6.848;2023-11-21T05:02:47;30.87;;;22.17;;
20456;SDS011;10387;51.102;6.848;2023-11-21T05:05:13;33.13;;;22.20;;
20456;SDS011;10387;51.102;6.848;2023-11-21T05:07:40;27.23;;;20.53;;
20456;SDS011;10387;51.102;6.848;2023-11-21T05:10:08;29.43;;;20.63;;
20456;SDS011;10387;51.102;6.848;2023-11-21T05:12:37;33.37;;;22.60;;
20456;SDS011;10387;51.102;6.848;2023-11-21T05:15:07;30.23;;;21.23;;
20456;SDS011;10387;51.102;6.848;2023-11-21T05:17:36;30.83;;;20.70;;
20456;SDS011;10387;51.102;6.848;2023-11-21T05:20:04;29.83;;;21.57;;
20456;SDS011;10387;51.102;6.848;2023-11-21T05:22:34;29.30;;;21.67;;
20456;SDS011;10387;51.102;6.848;2023-11-21T05:25:00;31.33;;;19.93;;
20456;SDS011;10387;51.102;6.848;2023-11-21T05:27:28;31.03;;;20.30;;
20456;SDS011;10387;51.102;6.848;2023-11-21T05:29:54;29.00;;;21.60;;
20456;SDS011;10387;51.102;6.848;2023-11-21T05:32:20;33.57;;;22.37;;
20456;SDS011;10387;51.102;6.848;2023-11-21T05:34:47;32.80;;;21.80;;
20456;SDS011;10387;51.102;6.848;2023-11-21T05:37:14;32.40;;;22.37;;
20456;SDS011;10387;51.102;6.848;2023-11-21T05:39:40;31.30;;;21.27;;
20456;SDS011;10387;51.102;6.848;2023-11-21T05:42:06;29.47;;;20.87;;
20456;SDS011;10387;51.102;6.848;2023-11-21T05:44:34;32.43;;;21.43;;
20456;SDS011;10387;51.102;6.848;2023-11-21T05:47:00;32.63;;;22.60;;
20456;SDS011;10387;51.102;6.848;2023-11-21T05:49:26;31.17;;;21.63;;
20456;SDS011;10387;51.102;6.848;2023-11-21T05:51:53;33.70;;;23.57;;
20456;SDS011;10387;51.102;6.848;2023-11-21T05:54:19;38.83;;;25.07;;
20456;SDS011;10387;51.102;6.848;2023-11-21T05:56:46;35.33;;;23.27;;
20456;SDS011;10387;51.102;6.848;2023-11-21T05:59:12;32.40;;;22.10;;
20456;SDS011;10387;51.102;6.848;2023-11-21T06:01:38;34.33;;;21.83;;
20456;SDS011;10387;51.102;6.848;2023-11-21T06:04:05;33.00;;;21.97;;
20456;SDS011;10387;51.102;6.848;2023-11-21T06:06:33;31.80;;;21.83;;
20456;SDS011;10387;51.102;6.848;2023-11-21T06:09:00;34.33;;;21.93;;
20456;SDS011;10387;51.102;6.848;2023-11-21T06:11:26;31.93;;;21.23;;
20456;SDS011;10387;51.102;6.848;2023-11-21T06:13:52;32.13;;;21.20;;
20456;SDS011;10387;51.102;6.848;2023-11-21T06:16:18;38.80;;;22.93;;
20456;SDS011;10387;51.102;6.848;2023-11-21T06:18:47;30.77;;;21.40;;
20456;SDS011;10387;51.102;6.848;2023-11-21T06:21:14;30.53;;;20.47;;
20456;SDS011;10387;51.102;6.848;2023-11-21T06:23:42;32.90;;;22.57;;
20456;SDS011;10387;51.102;6.848;2023-11-21T06:26:09;31.47;;;21.57;;
20456;SDS011;10387;51.102;6.848;2023-11-21T06:28:35;37.27;;;23.80;;
20456;SDS011;10387;51.102;6.848;2023-11-21T06:31:01;42.53;;;26.23;;
20456;SDS011;10387;51.102;6.848;2023-11-21T06:33:33;42.60;;;25.77;;
20456;SDS011;10387;51.102;6.848;2023-11-21T06:35:59;44.03;;;27.43;;
20456;SDS011;10387;51.102;6.848;2023-11-21T06:38:28;48.03;;;27.13;;
20456;SDS011;10387;51.102;6.848;2023-11-21T06:40:58;41.57;;;25.37;;
20456;SDS011;10387;51.102;6.848;2023-11-21T06:43:27;40.03;;;24.07;;
20456;SDS011;10387;51.102;6.848;2023-11-21T06:45:53;39.67;;;24.07;;
20456;SDS011;10387;51.102;6.848;2023-11-21T06:48:19;41.37;;;25.90;;
20456;SDS011;10387;51.102;6.848;2023-11-21T06:50:45;38.43;;;23.93;;
20456;SDS011;10387;51.102;6.848;2023-11-21T06:53:11;42.97;;;24.27;;
20456;SDS011;10387;51.102;6.848;2023-11-21T06:55:38;37.90;;;23.83;;
20456;SDS011;10387;51.102;6.848;2023-11-21T06:58:04;39.20;;;22.53;;
20456;SDS011;10387;51.102;6.848;2023-11-21T07:00:30;39.17;;;24.47;;
20456;SDS011;10387;51.102;6.848;2023-11-21T07:02:56;36.40;;;23.73;;
20456;SDS011;10387;51.102;6.848;2023-11-21T07:05:22;35.97;;;21.77;;
20456;SDS011;10387;51.102;6.848;2023-11-21T07:07:49;40.57;;;23.77;;
20456;SDS011;10387;51.102;6.848;2023-11-21T07:10:15;38.73;;;22.87;;
20456;SDS011;10387;51.102;6.848;2023-11-21T07:12:42;36.10;;;23.27;;
20456;SDS011;10387;51.102;6.848;2023-11-21T07:15:08;39.83;;;23.80;;
20456;SDS011;10387;51.102;6.848;2023-11-21T07:17:35;37.20;;;22.73;;
20456;SDS011;10387;51.102;6.848;2023-11-21T07:20:03;35.20;;;22.43;;
20456;SDS011;10387;51.102;6.848;2023-11-21T07:22:30;36.77;;;22.67;;
20456;SDS011;10387;51.102;6.848;2023-11-21T07:24:56;38.57;;;23.67;;
20456;SDS011;10387;51.102;6.848;2023-11-21T07:27:22;34.33;;;21.77;;
20456;SDS011;10387;51.102;6.848;2023-11-21T07:29:49;38.70;;;23.07;;
20456;SDS011;10387;51.102;6.848;2023-11-21T07:32:15;35.73;;;22.43;;
20456;SDS011;10387;51.102;6.848;2023-11-21T07:34:41;35.17;;;21.30;;
20456;SDS011;10387;51.102;6.848;2023-11-21T07:37:07;35.57;;;21.70;;
20456;SDS011;10387;51.102;6.848;2023-11-21T07:39:34;33.53;;;21.80;;
20456;SDS011;10387;51.102;6.848;2023-11-21T07:42:07;32.73;;;21.07;;
20456;SDS011;10387;51.102;6.848;2023-11-21T07:44:33;37.83;;;23.60;;
20456;SDS011;10387;51.102;6.848;2023-11-21T07:46:59;41.70;;;22.57;;
20456;SDS011;10387;51.102;6.848;2023-11-21T07:49:25;41.83;;;23.70;;
20456;SDS011;10387;51.102;6.848;2023-11-21T07:51:51;38.37;;;22.97;;
20456;SDS011;10387;51.102;6.848;2023-11-21T07:54:20;46.67;;;25.93;;
20456;SDS011;10387;51.102;6.848;2023-11-21T07:56:46;46.40;;;26.30;;
20456;SDS011;10387;51.102;6.848;2023-11-21T07:59:12;49.63;;;27.57;;
20456;SDS011;10387;51.102;6.848;2023-11-21T08:01:39;54.80;;;28.50;;
20456;SDS011;10387;51.102;6.848;2023-11-21T08:04:05;54.13;;;28.47;;
20456;SDS011;10387;51.102;6.848;2023-11-21T08:06:32;58.53;;;28.20;;
20456;SDS011;10387;51.102;6.848;2023-11-21T08:08:58;57.20;;;28.10;;
20456;SDS011;10387;51.102;6.848;2023-11-21T08:11:25;59.10;;;30.90;;
20456;SDS011;10387;51.102;6.848;2023-11-21T08:13:54;65.83;;;31.10;;
20456;SDS011;10387;51.102;6.848;2023-11-21T08:16:20;70.63;;;32.70;;
20456;SDS011;10387;51.102;6.848;2023-11-21T08:18:46;70.53;;;32.57;;
20456;SDS011;10387;51.102;6.848;2023-11-21T08:21:12;61.47;;;31.60;;
20456;SDS011;10387;51.102;6.848;2023-11-21T08:23:38;66.50;;;32.93;;
20456;SDS011;10387;51.102;6.848;2023-11-21T08:26:05;67.27;;;31.87;;
20456;SDS011;10387;51.102;6.848;2023-11-21T08:28:31;66.40;;;31.83;;
20456;SDS011;10387;51.102;6.848;2023-11-21T08:30:57;66.13;;;31.77;;
20456;SDS011;10387;51.102;6.848;2023-11-21T08:33:24;64.13;;;31.53;;
20456;SDS011;10387;51.102;6.848;2023-11-21T08:35:50;62.97;;;31.50;;
20456;SDS011;10387;51.102;6.848;2023-11-21T08:38:16;62.00;;;30.93;;
20456;SDS011;10387;51.102;6.848;2023-11-21T08:40:43;60.47;;;29.80;;
20456;SDS011;10387;51.102;6.848;2023-11-21T08:43:09;54.33;;;27.03;;
20456;SDS011;10387;51.102;6.848;2023-11-21T08:45:37;57.40;;;25.77;;
20456;SDS011;10387;51.102;6.848;2023-11-21T08:48:03;54.27;;;26.37;;
20456;SDS011;10387;51.102;6.848;2023-11-21T08:50:29;54.73;;;25.00;;
20456;SDS011;10387;51.102;6.848;2023-11-21T08:52:55;49.90;;;26.40;;
20456;SDS011;10387;51.102;6.848;2023-11-21T08:55:21;54.10;;;25.73;;
20456;SDS011;10387;51.102;6.848;2023-11-21T08:57:47;58.03;;;27.60;;
20456;SDS011;10387;51.102;6.848;2023-11-21T09:00:14;63.80;;;26.73;;
20456;SDS011;10387;51.102;6.848;2023-11-21T09:02:43;57.40;;;26.60;;
20456;SDS011;10387;51.102;6.848;2023-11-21T09:05:13;55.93;;;27.80;;
20456;SDS011;10387;51.102;6.848;2023-11-21T09:07:40;65.53;;;28.20;;
20456;SDS011;10387;51.102;6.848;2023-11-21T09:10:06;56.03;;;27.17;;
20456;SDS011;10387;51.102;6.848;2023-11-21T09:12:34;56.73;;;28.20;;
20456;SDS011;10387;51.102;6.848;2023-11-21T09:15:05;59.40;;;28.33;;
20456;SDS011;10387;51.102;6.848;2023-11-21T09:17:32;61.90;;;29.73;;
20456;SDS011;10387;51.102;6.848;2023-11-21T09:19:59;64.93;;;30.27;;
20456;SDS011;10387;51.102;6.848;2023-11-21T09:22:25;69.43;;;31.60;;
20456;SDS011;10387;51.102;6.848;2023-11-21T09:24:52;69.13;;;30.17;;
20456;SDS011;10387;51.102;6.848;2023-11-21T09:27:18;69.30;;;29.10;;
20456;SDS011;10387;51.102;6.848;2023-11-21T09:29:44;67.23;;;30.17;;
20456;SDS011;10387;51.102;6.848;2023-11-21T09:32:14;66.80;;;29.87;;
20456;SDS011;10387;51.102;6.848;2023-11-21T09:34:41;66.17;;;29.60;;
20456;SDS011;10387;51.102;6.848;2023-11-21T09:37:07;70.13;;;32.50;;
20456;SDS011;10387;51.102;6.848;2023-11-21T09:39:34;74.07;;;30.67;;
20456;SDS011;10387;51.102;6.848;2023-11-21T09:42:08;64.67;;;30.60;;
20456;SDS011;10387;51.102;6.848;2023-11-21T09:44:47;66.37;;;30.27;;
20456;SDS011;10387;51.102;6.848;2023-11-21T09:47:15;65.53;;;30.70;;
20456;SDS011;10387;51.102;6.848;2023-11-21T09:49:47;71.63;;;31.53;;
20456;SDS011;10387;51.102;6.848;2023-11-21T09:52:17;65.97;;;30.97;;
20456;SDS011;10387;51.102;6.848;2023-11-21T09:54:44;67.37;;;31.17;;
20456;SDS011;10387;51.102;6.848;2023-11-21T09:57:13;62.33;;;28.27;;
20456;SDS011;10387;51.102;6.848;2023-11-21T09:59:40;56.53;;;28.23;;
20456;SDS011;10387;51.102;6.848;2023-11-21T10:02:07;54.13;;;26.67;;
20456;SDS011;10387;51.102;6.848;2023-11-21T10:04:38;62.97;;;28.00;;
20456;SDS011;10387;51.102;6.848;2023-11-21T10:07:04;59.03;;;28.50;;
20456;SDS011;10387;51.102;6.848;2023-11-21T10:09:36;54.37;;;27.07;;
20456;SDS011;10387;51.102;6.848;2023-11-21T10:12:04;59.70;;;28.63;;
20456;SDS011;10387;51.102;6.848;2023-11-21T10:14:36;57.17;;;28.73;;
20456;SDS011;10387;51.102;6.848;2023-11-21T10:17:07;55.17;;;25.33;;
20456;SDS011;10387;51.102;6.848;2023-11-21T10:19:34;56.00;;;25.77;;
20456;SDS011;10387;51.102;6.848;2023-11-21T10:22:01;56.70;;;25.93;;
20456;SDS011;10387;51.102;6.848;2023-11-21T10:24:28;59.07;;;26.83;;
20456;SDS011;10387;51.102;6.848;2023-11-21T10:26:54;60.90;;;26.47;;
20456;SDS011;10387;51.102;6.848;2023-11-21T10:29:22;54.03;;;24.93;;
20456;SDS011;10387;51.102;6.848;2023-11-21T10:31:51;54.70;;;25.47;;
20456;SDS011;10387;51.102;6.848;2023-11-21T10:34:20;56.47;;;26.23;;
20456;SDS011;10387;51.102;6.848;2023-11-21T10:36:47;49.57;;;24.97;;
20456;SDS011;10387;51.102;6.848;2023-11-21T10:39:17;48.30;;;24.57;;
20456;SDS011;10387;51.102;6.848;2023-11-21T10:41:44;53.17;;;25.17;;
20456;SDS011;10387;51.102;6.848;2023-11-21T10:44:13;53.37;;;24.13;;
20456;SDS011;10387;51.102;6.848;2023-11-21T10:46:45;45.73;;;23.43;;
20456;SDS011;10387;51.102;6.848;2023-11-21T10:49:15;51.90;;;25.57;;
20456;SDS011;10387;51.102;6.848;2023-11-21T10:51:46;52.87;;;25.50;;
20456;SDS011;10387;51.102;6.848;2023-11-21T10:54:25;41.87;;;21.47;;
20456;SDS011;10387;51.102;6.848;2023-11-21T10:56:59;50.23;;;23.77;;
20456;SDS011;10387;51.102;6.848;2023-11-21T10:59:29;46.40;;;22.67;;
20456;SDS011;10387;51.102;6.848;2023-11-21T11:01:57;45.87;;;22.37;;
20456;SDS011;10387;51.102;6.848;2023-11-21T11:04:25;47.17;;;22.57;;
20456;SDS011;10387;51.102;6.848;2023-11-21T11:07:02;53.60;;;25.13;;
20456;SDS011;10387;51.102;6.848;2023-11-21T11:09:28;52.60;;;24.83;;
20456;SDS011;10387;51.102;6.848;2023-11-21T11:11:57;47.37;;;23.17;;
20456;SDS011;10387;51.102;6.848;2023-11-21T11:14:24;54.13;;;25.57;;
20456;SDS011;10387;51.102;6.848;2023-11-21T11:16:52;56.77;;;24.77;;
20456;SDS011;10387;51.102;6.848;2023-11-21T11:19:19;50.53;;;24.70;;
20456;SDS011;10387;51.102;6.848;2023-11-21T11:24:28;56.57;;;25.27;;
20456;SDS011;10387;51.102;6.848;2023-11-21T11:27:06;54.83;;;25.10;;
20456;SDS011;10387;51.102;6.848;2023-11-21T11:29:36;58.67;;;25.33;;
20456;SDS011;10387;51.102;6.848;2023-11-21T11:34:56;46.47;;;23.90;;
20456;SDS011;10387;51.102;6.848;2023-11-21T11:37:26;44.40;;;23.07;;
20456;SDS011;10387;51.102;6.848;2023-11-21T11:39:53;46.97;;;23.57;;
20456;SDS011;10387;51.102;6.848;2023-11-21T11:42:20;47.33;;;23.03;;
20456;SDS011;10387;51.102;6.848;2023-11-21T11:44:49;46.60;;;22.20;;
20456;SDS011;10387;51.102;6.848;2023-11-21T11:47:26;42.20;;;21.70;;
20456;SDS011;10387;51.102;6.848;2023-11-21T11:50:01;48.70;;;23.70;;
20456;SDS011;10387;51.102;6.848;2023-11-21T11:52:46;46.27;;;21.97;;
20456;SDS011;10387;51.102;6.848;2023-11-21T11:55:14;46.33;;;21.97;;
20456;SDS011;10387;51.102;6.848;2023-11-21T11:57:43;47.13;;;24.40;;
20456;SDS011;10387;51.102;6.848;2023-11-21T12:00:10;50.47;;;25.00;;
20456;SDS011;10387;51.102;6.848;2023-11-21T12:02:38;45.60;;;23.43;;
20456;SDS011;10387;51.102;6.848;2023-11-21T12:05:11;45.27;;;22.63;;
20456;SDS011;10387;51.102;6.848;2023-11-21T12:10:14;51.10;;;25.03;;
20456;SDS011;10387;51.102;6.848;2023-11-21T12:12:49;47.87;;;24.53;;
20456;SDS011;10387;51.102;6.848;2023-11-21T12:15:16;40.77;;;21.23;;
20456;SDS011;10387;51.102;6.848;2023-11-21T12:17:42;34.17;;;19.43;;
20456;SDS011;10387;51.102;6.848;2023-11-21T12:20:09;41.03;;;20.87;;
20456;SDS011;10387;51.102;6.848;2023-11-21T12:22:52;42.67;;;23.00;;
20456;SDS011;10387;51.102;6.848;2023-11-21T12:25:19;38.70;;;20.93;;
20456;SDS011;10387;51.102;6.848;2023-11-21T12:27:47;44.47;;;23.07;;
20456;SDS011;10387;51.102;6.848;2023-11-21T12:30:14;40.00;;;22.30;;
20456;SDS011;10387;51.102;6.848;2023-11-21T12:32:47;43.63;;;22.97;;
20456;SDS011;10387;51.102;6.848;2023-11-21T12:35:13;48.30;;;24.23;;
20456;SDS011;10387;51.102;6.848;2023-11-21T12:37:41;44.37;;;24.23;;
20456;SDS011;10387;51.102;6.848;2023-11-21T12:40:08;48.00;;;24.00;;
20456;SDS011;10387;51.102;6.848;2023-11-21T12:42:44;53.17;;;25.20;;
20456;SDS011;10387;51.102;6.848;2023-11-21T12:47:43;44.83;;;25.23;;
20456;SDS011;10387;51.102;6.848;2023-11-21T12:50:10;48.47;;;25.83;;
20456;SDS011;10387;51.102;6.848;2023-11-21T12:52:42;47.67;;;26.87;;
20456;SDS011;10387;51.102;6.848;2023-11-21T12:55:14;51.33;;;27.10;;
20456;SDS011;10387;51.102;6.848;2023-11-21T12:57:41;49.77;;;26.33;;
20456;SDS011;10387;51.102;6.848;2023-11-21T13:00:09;44.30;;;22.80;;
20456;SDS011;10387;51.102;6.848;2023-11-21T13:02:40;30.93;;;18.20;;
20456;SDS011;10387;51.102;6.848;2023-11-21T13:05:08;37.33;;;19.97;;
20456;SDS011;10387;51.102;6.848;2023-11-21T13:07:44;36.27;;;20.30;;
20456;SDS011;10387;51.102;6.848;2023-11-21T13:10:16;34.17;;;21.13;;
20456;SDS011;10387;51.102;6.848;2023-11-21T13:12:43;37.80;;;22.13;;
20456;SDS011;10387;51.102;6.848;2023-11-21T13:15:14;42.53;;;23.13;;
20456;SDS011;10387;51.102;6.848;2023-11-21T13:17:46;40.13;;;22.97;;
20456;SDS011;10387;51.102;6.848;2023-11-21T13:20:13;44.10;;;24.27;;
20456;SDS011;10387;51.102;6.848;2023-11-21T13:22:49;44.73;;;24.90;;
20456;SDS011;10387;51.102;6.848;2023-11-21T13:25:19;48.87;;;25.93;;
20456;SDS011;10387;51.102;6.848;2023-11-21T13:27:45;49.13;;;27.13;;
20456;SDS011;10387;51.102;6.848;2023-11-21T13:30:12;49.07;;;25.23;;
20456;SDS011;10387;51.102;6.848;2023-11-21T13:32:43;49.00;;;25.73;;
20456;SDS011;10387;51.102;6.848;2023-11-21T13:35:11;59.43;;;30.63;;
20456;SDS011;10387;51.102;6.848;2023-11-21T13:37:46;62.90;;;31.93;;
20456;SDS011;10387;51.102;6.848;2023-11-21T13:40:15;68.33;;;33.57;;
20456;SDS011;10387;51.102;6.848;2023-11-21T13:42:45;66.50;;;32.90;;
20456;SDS011;10387;51.102;6.848;2023-11-21T13:45:11;63.87;;;29.83;;
20456;SDS011;10387;51.102;6.848;2023-11-21T13:47:37;65.87;;;29.67;;
20456;SDS011;10387;51.102;6.848;2023-11-21T13:50:05;57.27;;;27.30;;
20456;SDS011;10387;51.102;6.848;2023-11-21T13:52:42;58.57;;;27.10;;
20456;SDS011;10387;51.102;6.848;2023-11-21T13:55:10;53.33;;;27.40;;
20456;SDS011;10387;51.102;6.848;2023-11-21T13:57:42;64.23;;;29.40;;
20456;SDS011;10387;51.102;6.848;2023-11-21T14:00:11;57.50;;;29.60;;
20456;SDS011;10387;51.102;6.848;2023-11-21T14:02:57;59.70;;;27.83;;
20456;SDS011;10387;51.102;6.848;2023-11-21T14:05:25;61.50;;;29.00;;
20456;SDS011;10387;51.102;6.848;2023-11-21T14:07:55;61.83;;;30.63;;
20456;SDS011;10387;51.102;6.848;2023-11-21T14:10:28;58.27;;;28.30;;
20456;SDS011;10387;51.102;6.848;2023-11-21T14:13:02;57.90;;;28.80;;
20456;SDS011;10387;51.102;6.848;2023-11-21T14:15:30;57.33;;;28.53;;
20456;SDS011;10387;51.102;6.848;2023-11-21T14:17:58;61.03;;;29.40;;
20456;SDS011;10387;51.102;6.848;2023-11-21T14:20:25;54.03;;;27.70;;
20456;SDS011;10387;51.102;6.848;2023-11-21T14:22:51;59.03;;;29.23;;
20456;SDS011;10387;51.102;6.848;2023-11-21T14:25:17;60.93;;;29.53;;
20456;SDS011;10387;51.102;6.848;2023-11-21T14:27:44;61.23;;;30.30;;
20456;SDS011;10387;51.102;6.848;2023-11-21T14:30:10;63.50;;;32.47;;
20456;SDS011;10387;51.102;6.848;2023-11-21T14:32:39;69.13;;;31.40;;
20456;SDS011;10387;51.102;6.848;2023-11-21T14:35:05;66.80;;;32.63;;